Time,TemperatureF,DewpointF,PressureIn,WindDirection,WindDirectionDegrees,WindSpeedMPH,WindSpeedGustMPH,Humidity,HourlyPrecipIn,Conditions,Clouds,dailyrainin,SoftwareType,DateUTC
2013-04-13 00:13:00,26.5,19.0,30.05,NW,314,1.0,3.0,73,0.00,,,0.00,weatherlink.com 1.10,2013-04-13 06:13:00,
2013-04-13 00:28:00,26.6,19.0,30.05,NW,322,2.0,5.0,72,0.00,,,0.00,weatherlink.com 1.10,2013-04-13 06:28:00,
2013-04-13 00:44:00,26.2,19.0,30.05,West,276,1.0,2.0,73,0.00,,,0.00,weatherlink.com 1.10,2013-04-13 06:44:00,
2013-04-13 00:59:00,26.0,18.0,30.05,WNW,291,2.0,6.0,71,0.00,,,0.00,weatherlink.com 1.10,2013-04-13 06:59:00,
2013-04-13 01:14:00,24.8,18.0,30.05,NW,316,1.0,4.0,74,0.00,,,0.00,weatherlink.com 1.10,2013-04-13 07:14:00,
2013-04-13 01:44:00,24.4,18.0,30.05,NNW,334,3.0,3.0,75,0.00,,,0.00,weatherlink.com 1.10,2013-04-13 07:44:00,
2013-04-13 02:14:00,24.0,17.0,30.04,North,11,3.0,6.0,74,0.00,,,0.00,weatherlink.com 1.10,2013-04-13 08:14:00,
2013-04-13 02:29:00,23.6,17.0,30.03,NNW,334,3.0,5.0,75,0.00,,,0.00,weatherlink.com 1.10,2013-04-13 08:29:00,
2013-04-13 02:44:00,22.6,16.0,30.03,NNW,328,2.0,4.0,76,0.00,,,0.00,weatherlink.com 1.10,2013-04-13 08:44:00,
2013-04-13 02:59:00,22.0,16.0,30.03,NW,314,2.0,4.0,77,0.00,,,0.00,weatherlink.com 1.10,2013-04-13 08:59:00,
2013-04-13 03:14:00,21.6,16.0,30.03,NW,325,2.0,2.0,78,0.00,,,0.00,weatherlink.com 1.10,2013-04-13 09:14:00,
2013-04-13 03:29:00,21.2,16.0,30.03,NNW,328,2.0,3.0,79,0.00,,,0.00,weatherlink.com 1.10,2013-04-13 09:29:00,
2013-04-13 03:59:00,19.3,14.0,30.02,NW,305,1.0,3.0,81,0.00,,,0.00,weatherlink.com 1.10,2013-04-13 09:59:00,
2013-04-13 04:14:00,19.9,14.0,30.02,NNW,343,1.0,3.0,79,0.00,,,0.00,weatherlink.com 1.10,2013-04-13 10:14:00,
2013-04-13 04:29:00,19.6,15.0,30.02,NNW,339,0.0,1.0,81,0.00,,,0.00,weatherlink.com 1.10,2013-04-13 10:29:00,
2013-04-13 04:59:00,18.3,14.0,30.03,North,349,0.0,1.0,82,0.00,,,0.00,weatherlink.com 1.10,2013-04-13 10:59:00,
2013-04-13 05:14:00,18.3,14.0,30.02,WNW,283,0.0,1.0,83,0.00,,,0.00,weatherlink.com 1.10,2013-04-13 11:14:00,
2013-04-13 05:29:00,18.1,14.0,30.02,WNW,284,0.0,0.0,82,0.00,,,0.00,weatherlink.com 1.10,2013-04-13 11:29:00,
2013-04-13 05:59:00,17.9,14.0,30.02,WNW,288,1.0,3.0,83,0.00,,,0.00,weatherlink.com 1.10,2013-04-13 11:59:00,
2013-04-13 06:14:00,16.7,13.0,30.02,WNW,300,1.0,3.0,85,0.00,,,0.00,weatherlink.com 1.10,2013-04-13 12:14:00,
2013-04-13 06:29:00,16.7,13.0,30.02,NW,326,0.0,2.0,84,0.00,,,0.00,weatherlink.com 1.10,2013-04-13 12:29:00,
2013-04-13 06:45:00,17.0,13.0,30.02,NW,326,1.0,1.0,83,0.00,,,0.00,weatherlink.com 1.10,2013-04-13 12:45:00,
2013-04-13 07:00:00,17.1,13.0,30.03,WNW,302,3.0,3.0,83,0.00,,,0.00,weatherlink.com 1.10,2013-04-13 13:00:00,
2013-04-13 07:15:00,17.1,13.0,30.03,NW,314,0.0,1.0,83,0.00,,,0.00,weatherlink.com 1.10,2013-04-13 13:15:00,
2013-04-13 07:30:00,19.1,14.0,30.03,WNW,291,0.0,2.0,81,0.00,,,0.00,weatherlink.com 1.10,2013-04-13 13:30:00,
2013-04-13 07:45:00,22.1,16.0,30.02,NNE,15,0.0,2.0,76,0.00,,,0.00,weatherlink.com 1.10,2013-04-13 13:45:00,
2013-04-13 08:15:00,24.3,16.0,30.00,North,352,0.0,1.0,70,0.00,,,0.00,weatherlink.com 1.10,2013-04-13 14:15:00,
2013-04-13 08:30:00,25.0,16.0,29.99,WNW,296,0.0,3.0,69,0.00,,,0.00,weatherlink.com 1.10,2013-04-13 14:30:00,
2013-04-13 08:45:00,27.7,16.0,29.98,NE,53,0.0,0.0,63,0.00,,,0.00,weatherlink.com 1.10,2013-04-13 14:45:00,
2013-04-13 09:00:00,28.6,17.0,29.97,NE,41,1.0,3.0,62,0.00,,,0.00,weatherlink.com 1.10,2013-04-13 15:00:00,
2013-04-13 09:15:00,30.3,18.0,29.96,NNE,15,1.0,2.0,61,0.00,,,0.00,weatherlink.com 1.10,2013-04-13 15:15:00,
2013-04-13 09:30:00,32.4,17.0,29.95,ESE,114,1.0,2.0,53,0.00,,,0.00,weatherlink.com 1.10,2013-04-13 15:30:00,
2013-04-13 09:45:00,33.2,17.0,29.94,SE,137,5.0,6.0,51,0.00,,,0.00,weatherlink.com 1.10,2013-04-13 15:45:00,
2013-04-13 10:00:00,34.5,19.0,29.92,East,96,2.0,5.0,54,0.00,,,0.00,weatherlink.com 1.10,2013-04-13 16:00:00,
2013-04-13 10:15:00,36.3,20.0,29.91,East,98,5.0,5.0,51,0.00,,,0.00,weatherlink.com 1.10,2013-04-13 16:15:00,
2013-04-13 10:30:00,38.9,20.0,29.90,SSE,149,3.0,6.0,46,0.00,,,0.00,weatherlink.com 1.10,2013-04-13 16:30:00,
2013-04-13 10:45:00,41.6,22.0,29.88,SE,141,1.0,7.0,46,0.00,,,0.00,weatherlink.com 1.10,2013-04-13 16:45:00,
2013-04-13 11:15:00,46.6,17.0,29.86,SW,235,8.0,17.0,30,0.00,,,0.00,weatherlink.com 1.10,2013-04-13 17:15:00,
2013-04-13 11:30:00,46.8,16.0,29.85,West,277,11.0,19.0,29,0.00,,,0.00,weatherlink.com 1.10,2013-04-13 17:30:00,
2013-04-13 12:01:00,48.7,18.0,29.83,WSW,240,5.0,11.0,29,0.00,,,0.00,weatherlink.com 1.10,2013-04-13 18:01:00,
2013-04-13 12:16:00,47.0,16.0,29.82,SSW,212,10.0,20.0,29,0.00,,,0.00,weatherlink.com 1.10,2013-04-13 18:16:00,
2013-04-13 12:31:00,48.0,16.0,29.82,West,260,8.0,15.0,28,0.00,,,0.00,weatherlink.com 1.10,2013-04-13 18:31:00,
2013-04-13 12:46:00,49.7,14.0,29.80,WSW,240,2.0,15.0,24,0.00,,,0.00,weatherlink.com 1.10,2013-04-13 18:46:00,
2013-04-13 13:01:00,50.3,16.0,29.79,SW,218,6.0,14.0,26,0.00,,,0.00,weatherlink.com 1.10,2013-04-13 19:01:00,
2013-04-13 13:16:00,50.3,16.0,29.79,WSW,257,7.0,18.0,25,0.00,,,0.00,weatherlink.com 1.10,2013-04-13 19:16:00,
2013-04-13 13:31:00,50.2,15.0,29.78,West,262,2.0,21.0,24,0.00,,,0.00,weatherlink.com 1.10,2013-04-13 19:31:00,
2013-04-13 14:31:00,49.1,16.0,29.74,SW,228,2.0,14.0,27,0.00,,,0.00,weatherlink.com 1.10,2013-04-13 20:31:00,
2013-04-13 14:46:00,48.9,16.0,29.73,NW,307,10.0,13.0,27,0.00,,,0.00,weatherlink.com 1.10,2013-04-13 20:46:00,
2013-04-13 15:02:00,48.6,12.0,29.72,North,356,2.0,17.0,23,0.00,,,0.00,weatherlink.com 1.10,2013-04-13 21:02:00,
2013-04-13 15:16:00,48.7,11.0,29.72,West,278,11.0,24.0,22,0.00,,,0.00,weatherlink.com 1.10,2013-04-13 21:16:00,
2013-04-13 15:31:00,48.7,12.0,29.70,WNW,300,9.0,17.0,23,0.00,,,0.00,weatherlink.com 1.10,2013-04-13 21:31:00,
2013-04-13 15:46:00,49.1,14.0,29.69,WNW,294,11.0,23.0,24,0.00,,,0.00,weatherlink.com 1.10,2013-04-13 21:46:00,
2013-04-13 16:01:00,49.5,16.0,29.69,West,278,8.0,19.0,26,0.00,,,0.00,weatherlink.com 1.10,2013-04-13 22:01:00,
2013-04-13 16:16:00,49.1,15.0,29.68,SSW,210,14.0,18.0,26,0.00,,,0.00,weatherlink.com 1.10,2013-04-13 22:16:00,
2013-04-13 16:32:00,48.6,15.0,29.68,NNW,337,8.0,24.0,26,0.00,,,0.00,weatherlink.com 1.10,2013-04-13 22:32:00,
2013-04-13 17:01:00,48.5,15.0,29.67,SW,229,13.0,16.0,26,0.00,,,0.00,weatherlink.com 1.10,2013-04-13 23:01:00,
2013-04-13 17:16:00,48.0,14.0,29.67,SSW,207,3.0,17.0,26,0.00,,,0.00,weatherlink.com 1.10,2013-04-13 23:16:00,
2013-04-13 17:31:00,48.0,16.0,29.65,WNW,293,6.0,21.0,28,0.00,,,0.00,weatherlink.com 1.10,2013-04-13 23:31:00,
2013-04-13 17:46:00,48.2,16.0,29.65,ESE,117,1.0,8.0,28,0.00,,,0.00,weatherlink.com 1.10,2013-04-13 23:46:00,
2013-04-13 18:01:00,47.3,15.0,29.64,West,260,9.0,17.0,27,0.00,,,0.00,weatherlink.com 1.10,2013-04-14 00:01:00,
2013-04-13 18:16:00,47.0,15.0,29.63,South,179,9.0,15.0,28,0.00,,,0.00,weatherlink.com 1.10,2013-04-14 00:16:00,
2013-04-13 18:31:00,46.8,13.0,29.63,SW,226,3.0,13.0,26,0.00,,,0.00,weatherlink.com 1.10,2013-04-14 00:31:00,
2013-04-13 18:46:00,48.3,15.0,29.62,SW,218,5.0,20.0,26,0.00,,,0.00,weatherlink.com 1.10,2013-04-14 00:46:00,
2013-04-13 19:01:00,47.5,15.0,29.61,ESE,104,7.0,15.0,27,0.00,,,0.00,weatherlink.com 1.10,2013-04-14 01:01:00,
2013-04-13 19:16:00,46.7,16.0,29.60,WSW,252,4.0,6.0,29,0.00,,,0.00,weatherlink.com 1.10,2013-04-14 01:16:00,
2013-04-13 19:32:00,46.1,15.0,29.59,East,101,1.0,13.0,29,0.00,,,0.00,weatherlink.com 1.10,2013-04-14 01:32:00,
2013-04-13 19:46:00,45.1,17.0,29.58,WNW,294,11.0,18.0,32,0.00,,,0.00,weatherlink.com 1.10,2013-04-14 01:46:00,
2013-04-13 20:02:00,44.8,18.0,29.57,East,98,2.0,13.0,34,0.00,,,0.00,weatherlink.com 1.10,2013-04-14 02:02:00,
2013-04-13 20:17:00,44.9,19.0,29.56,NNW,339,8.0,28.0,35,0.00,,,0.00,weatherlink.com 1.10,2013-04-14 02:17:00,
2013-04-13 20:32:00,45.3,18.0,29.56,West,274,6.0,24.0,33,0.00,,,0.00,weatherlink.com 1.10,2013-04-14 02:32:00,
2013-04-13 20:47:00,45.8,17.0,29.57,SW,235,10.0,25.0,32,0.00,,,0.00,weatherlink.com 1.10,2013-04-14 02:47:00,
2013-04-13 21:02:00,45.9,18.0,29.56,SE,125,17.0,39.0,33,0.00,,,0.00,weatherlink.com 1.10,2013-04-14 03:02:00,
2013-04-13 21:17:00,45.8,19.0,29.58,WNW,300,9.0,21.0,35,0.00,,,0.00,weatherlink.com 1.10,2013-04-14 03:17:00,
2013-04-13 21:32:00,44.8,22.0,29.57,ESE,120,4.0,28.0,40,0.00,,,0.00,weatherlink.com 1.10,2013-04-14 03:32:00,
2013-04-13 21:47:00,43.5,24.0,29.60,SW,221,5.0,27.0,46,0.00,,,0.00,weatherlink.com 1.10,2013-04-14 03:47:00,
2013-04-13 22:02:00,42.8,25.0,29.59,WNW,302,7.0,16.0,49,0.00,,,0.00,weatherlink.com 1.10,2013-04-14 04:02:00,
2013-04-13 22:17:00,42.2,25.0,29.61,North,350,5.0,25.0,51,0.00,,,0.00,weatherlink.com 1.10,2013-04-14 04:17:00,
2013-04-13 22:32:00,41.4,26.0,29.60,West,280,6.0,20.0,55,0.00,,,0.00,weatherlink.com 1.10,2013-04-14 04:32:00,
2013-04-13 22:47:00,41.1,26.0,29.59,North,4,5.0,14.0,56,0.00,,,0.00,weatherlink.com 1.10,2013-04-14 04:47:00,
2013-04-13 23:02:00,38.5,29.0,29.59,NNW,344,7.0,18.0,70,0.00,,,0.00,weatherlink.com 1.10,2013-04-14 05:02:00,
2013-04-13 23:17:00,36.8,31.0,29.59,WNW,300,3.0,12.0,78,0.00,,,0.00,weatherlink.com 1.10,2013-04-14 05:17:00,
2013-04-13 23:32:00,35.9,31.0,29.59,NNW,328,5.0,12.0,81,0.00,,,0.00,weatherlink.com 1.10,2013-04-14 05:32:00,